Time;durP1;ratioP1;P1;durP2;ratioP2;P2;SDS_P1;SDS_P2;PMS_P1;PMS_P2;Temp;Humidity;BMP_temperature;BMP_pressure;BME280_temperature;BME280_humidity;BME280_pressure;Samples;Min_cycle;Max_cycle;Signal;HPM_P1;HPM_P2
2021/11/13 00:00:00;;;;;;;4.57;2.90;;;;;;;;;;7394242;19;20632;-58
2021/11/13 00:02:30;;;;;;;3.75;2.33;;;;;;;;;;7394007;19;20486;-59
2021/11/13 00:04:57;;;;;;;5.40;3.00;;;;;;;;;;7392632;19;20010;-59
2021/11/13 00:07:25;;;;;;;4.90;2.78;;;;;;;;;;7394537;19;20011;-59
2021/11/13 00:09:52;;;;;;;5.57;2.75;;;;;;;;;;7394216;19;20479;-59
2021/11/13 00:12:20;;;;;;;4.25;2.67;;;;;;;;;;7394287;19;20014;-58
2021/11/13 00:14:47;;;;;;;7.70;4.50;;;;;;;;;;7393417;19;20035;-52
2021/11/13 00:17:16;;;;;;;5.10;2.85;;;;;;;;;;7394299;19;20507;-58
2021/11/13 00:19:44;;;;;;;4.85;2.80;;;;;;;;;;7393816;19;20013;-57
2021/11/13 00:22:12;;;;;;;4.38;2.78;;;;;;;;;;7393516;19;20475;-59
2021/11/13 00:24:40;;;;;;;5.65;2.45;;;;;;;;;;7391184;19;20011;-58
2021/11/13 00:27:08;;;;;;;5.57;2.95;;;;;;;;;;7393500;19;20013;-59
2021/11/13 00:29:36;;;;;;;3.65;2.47;;;;;;;;;;7391858;19;20029;-57
2021/11/13 00:32:06;;;;;;;6.28;3.10;;;;;;;;;;7392848;19;20021;-58
2021/11/13 00:34:34;;;;;;;4.00;2.53;;;;;;;;;;7392768;19;20006;-59
2021/11/13 00:37:01;;;;;;;7.03;3.42;;;;;;;;;;7392896;19;20014;-59
2021/11/13 00:39:29;;;;;;;7.18;3.03;;;;;;;;;;7392125;19;20006;-58
2021/11/13 00:41:56;;;;;;;4.30;2.45;;;;;;;;;;7392962;19;20031;-58
2021/11/13 00:44:23;;;;;;;4.63;2.53;;;;;;;;;;7390647;19;20095;-59
2021/11/13 00:46:53;;;;;;;2.75;1.80;;;;;;;;;;7392440;19;20018;-59
2021/11/13 00:49:22;;;;;;;5.43;3.08;;;;;;;;;;7392614;19;20455;-59
2021/11/13 00:51:49;;;;;;;6.85;3.60;;;;;;;;;;7393092;19;20353;-58
2021/11/13 00:54:17;;;;;;;5.75;2.75;;;;;;;;;;7391299;19;20030;-59
2021/11/13 00:56:44;;;;;;;7.75;3.22;;;;;;;;;;7392130;19;20074;-58
2021/11/13 00:59:11;;;;;;;5.93;3.20;;;;;;;;;;7396179;19;20480;-58
2021/11/13 01:01:39;;;;;;;4.57;2.63;;;;;;;;;;7392204;19;20014;-59
2021/11/13 01:04:07;;;;;;;3.55;2.22;;;;;;;;;;7391266;19;20022;-58
2021/11/13 01:06:35;;;;;;;3.70;2.53;;;;;;;;;;7391771;19;20010;-59
2021/11/13 01:09:03;;;;;;;5.28;2.75;;;;;;;;;;7391982;19;20479;-59
2021/11/13 01:11:31;;;;;;;6.07;2.70;;;;;;;;;;7391684;19;20022;-59
2021/11/13 01:13:59;;;;;;;3.63;2.20;;;;;;;;;;7391845;19;20018;-60
2021/11/13 01:16:26;;;;;;;3.80;2.15;;;;;;;;;;7391395;19;20014;-59
2021/11/13 01:18:55;;;;;;;4.05;2.30;;;;;;;;;;7391336;19;20432;-59
2021/11/13 01:21:23;;;;;;;4.43;2.60;;;;;;;;;;7391298;19;20034;-59
2021/11/13 01:23:51;;;;;;;5.70;2.75;;;;;;;;;;7390883;19;20014;-59
2021/11/13 01:26:20;;;;;;;4.28;2.50;;;;;;;;;;7391368;19;20014;-59
2021/11/13 01:28:47;;;;;;;3.28;2.10;;;;;;;;;;7391449;19;20018;-59
2021/11/13 01:31:15;;;;;;;6.90;3.28;;;;;;;;;;7394869;19;20373;-59
2021/11/13 01:33:44;;;;;;;4.78;2.83;;;;;;;;;;7391323;19;20466;-60
2021/11/13 01:36:13;;;;;;;7.00;3.25;;;;;;;;;;7391644;19;20010;-60
2021/11/13 01:38:41;;;;;;;4.53;2.03;;;;;;;;;;7390559;19;20042;-59
2021/11/13 01:41:09;;;;;;;5.43;2.83;;;;;;;;;;7391130;19;20018;-58
2021/11/13 01:43:39;;;;;;;4.00;2.25;;;;;;;;;;7389009;19;20010;-58
2021/11/13 01:46:08;;;;;;;6.00;2.53;;;;;;;;;;7389826;19;20025;-58
2021/11/13 01:48:37;;;;;;;5.10;2.13;;;;;;;;;;7389499;19;20018;-59
2021/11/13 01:51:20;;;;;;;6.15;2.78;;;;;;;;;;7390956;19;20010;-60
2021/11/13 01:53:50;;;;;;;4.30;2.47;;;;;;;;;;7394482;19;20026;-58
2021/11/13 01:56:19;;;;;;;5.32;2.83;;;;;;;;;;7391032;19;20010;-59
2021/11/13 01:58:51;;;;;;;3.40;2.28;;;;;;;;;;7390926;19;20014;-57
2021/11/13 02:01:21;;;;;;;4.28;1.98;;;;;;;;;;7388548;19;20018;-59
2021/11/13 02:03:50;;;;;;;6.32;2.78;;;;;;;;;;7389222;19;20023;-60
2021/11/13 02:06:19;;;;;;;3.80;2.03;;;;;;;;;;7389663;19;20487;-60
2021/11/13 02:08:47;;;;;;;6.32;2.35;;;;;;;;;;7390660;19;20011;-58
2021/11/13 02:11:18;;;;;;;4.78;2.65;;;;;;;;;;7390189;19;20010;-59
2021/11/13 02:13:45;;;;;;;4.30;2.15;;;;;;;;;;7390138;19;20010;-59
2021/11/13 02:16:13;;;;;;;6.43;2.60;;;;;;;;;;7390408;19;20024;-59
2021/11/13 02:18:43;;;;;;;3.40;1.90;;;;;;;;;;7390081;19;20020;-60
2021/11/13 02:21:11;;;;;;;3.90;2.10;;;;;;;;;;7389618;19;20007;-57
2021/11/13 02:23:40;;;;;;;3.10;2.20;;;;;;;;;;7388652;19;20019;-59
2021/11/13 02:26:07;;;;;;;3.67;1.92;;;;;;;;;;7389591;19;20489;-58
2021/11/13 02:28:36;;;;;;;4.90;2.50;;;;;;;;;;7395221;19;20014;-58
2021/11/13 02:31:07;;;;;;;6.20;2.83;;;;;;;;;;7396931;19;20014;-59
2021/11/13 02:33:34;;;;;;;8.45;3.10;;;;;;;;;;7395282;19;20015;-59
2021/11/13 02:36:05;;;;;;;4.10;2.10;;;;;;;;;;7396746;19;20633;-59
2021/11/13 02:38:38;;;;;;;5.30;2.40;;;;;;;;;;7397182;19;20014;-59
2021/11/13 02:41:09;;;;;;;4.33;2.40;;;;;;;;;;7396325;19;20507;-59
2021/11/13 02:43:38;;;;;;;4.50;2.20;;;;;;;;;;7396071;19;20014;-59
2021/11/13 02:46:08;;;;;;;3.90;2.28;;;;;;;;;;7396464;19;20071;-59
2021/11/13 02:48:38;;;;;;;3.95;2.35;;;;;;;;;;7396976;19;20077;-59
2021/11/13 02:51:07;;;;;;;4.10;2.45;;;;;;;;;;7396170;19;20418;-57
2021/11/13 02:53:35;;;;;;;5.30;2.38;;;;;;;;;;7399598;19;20018;-58
2021/11/13 02:56:08;;;;;;;3.65;2.38;;;;;;;;;;7394705;19;20348;-59
2021/11/13 02:58:37;;;;;;;4.32;2.35;;;;;;;;;;7396199;19;20046;-59
2021/11/13 03:01:19;;;;;;;3.90;2.40;;;;;;;;;;7396169;19;20007;-59
2021/11/13 03:03:50;;;;;;;3.50;2.03;;;;;;;;;;7395348;19;20483;-59
2021/11/13 03:06:21;;;;;;;4.30;2.22;;;;;;;;;;7395635;19;20010;-59
2021/11/13 03:08:50;;;;;;;4.78;2.40;;;;;;;;;;7396433;19;20015;-58
2021/11/13 03:11:19;;;;;;;3.53;2.00;;;;;;;;;;7397296;19;20022;-59
2021/11/13 03:13:52;;;;;;;5.30;2.75;;;;;;;;;;7396055;19;20022;-59
2021/11/13 03:16:20;;;;;;;4.68;2.33;;;;;;;;;;7395102;19;20010;-59
2021/11/13 03:18:49;;;;;;;5.47;2.17;;;;;;;;;;7395100;19;20014;-59
2021/11/13 03:21:16;;;;;;;4.68;2.42;;;;;;;;;;7395727;19;20035;-59
2021/11/13 03:23:46;;;;;;;6.68;2.30;;;;;;;;;;7395040;19;20035;-59
2021/11/13 03:26:19;;;;;;;4.93;2.38;;;;;;;;;;7396373;19;20015;-59
2021/11/13 03:29:04;;;;;;;3.63;2.08;;;;;;;;;;7396029;19;20011;-59
2021/11/13 03:31:31;;;;;;;4.32;2.20;;;;;;;;;;7398917;19;20017;-59
2021/11/13 03:34:02;;;;;;;4.10;2.10;;;;;;;;;;7395133;19;20010;-58
2021/11/13 03:36:30;;;;;;;2.97;1.80;;;;;;;;;;7395240;19;20025;-59
2021/11/13 03:38:57;;;;;;;3.00;1.70;;;;;;;;;;7393316;19;20018;-59
2021/11/13 03:41:25;;;;;;;3.75;1.90;;;;;;;;;;7394453;19;20014;-59
2021/11/13 03:43:53;;;;;;;5.22;2.25;;;;;;;;;;7391998;19;20014;-59
2021/11/13 03:46:21;;;;;;;5.57;2.38;;;;;;;;;;7395212;19;20017;-59
2021/11/13 03:48:51;;;;;;;4.50;2.35;;;;;;;;;;7395025;19;20018;-59
2021/11/13 03:51:20;;;;;;;5.25;2.28;;;;;;;;;;7394209;19;20015;-58
2021/11/13 03:53:48;;;;;;;4.28;2.20;;;;;;;;;;7397944;19;20369;-59
2021/11/13 03:56:17;;;;;;;5.90;2.08;;;;;;;;;;7394434;19;20090;-59
2021/11/13 03:58:44;;;;;;;4.40;2.00;;;;;;;;;;7394753;19;20018;-57
2021/11/13 04:01:11;;;;;;;3.83;1.80;;;;;;;;;;7394192;19;20006;-58
2021/11/13 04:03:39;;;;;;;5.70;2.70;;;;;;;;;;7393308;19;20011;-58
2021/11/13 04:06:06;;;;;;;4.93;2.20;;;;;;;;;;7393431;19;20018;-59
2021/11/13 04:08:33;;;;;;;3.70;1.90;;;;;;;;;;7393643;19;20014;-59
2021/11/13 04:11:01;;;;;;;4.93;2.10;;;;;;;;;;7394030;19;20014;-58
2021/11/13 04:13:28;;;;;;;3.75;2.10;;;;;;;;;;7393998;19;20032;-57
2021/11/13 04:15:56;;;;;;;3.30;1.92;;;;;;;;;;7393282;19;20090;-58
2021/11/13 04:18:28;;;;;;;4.83;2.30;;;;;;;;;;7394246;19;20026;-57
2021/11/13 04:20:56;;;;;;;2.90;1.63;;;;;;;;;;7393363;19;20331;-59
2021/11/13 04:23:23;;;;;;;3.20;1.52;;;;;;;;;;7392904;19;20014;-59
2021/11/13 04:25:51;;;;;;;2.67;1.45;;;;;;;;;;7393599;19;20530;-58
2021/11/13 04:28:18;;;;;;;4.15;1.80;;;;;;;;;;7393275;19;20077;-59
2021/11/13 04:30:46;;;;;;;7.38;2.58;;;;;;;;;;7393892;19;20019;-59
2021/11/13 04:33:14;;;;;;;5.75;2.08;;;;;;;;;;7394238;19;20018;-59
2021/11/13 04:36:01;;;;;;;7.00;2.40;;;;;;;;;;7392737;19;20475;-59
2021/11/13 04:38:30;;;;;;;3.42;1.85;;;;;;;;;;7392890;19;20074;-58
2021/11/13 04:40:59;;;;;;;5.55;2.20;;;;;;;;;;7391383;19;20059;-59
2021/11/13 04:43:27;;;;;;;6.10;2.13;;;;;;;;;;7392583;19;20493;-60
2021/11/13 04:45:55;;;;;;;5.97;2.50;;;;;;;;;;7390748;19;20015;-59
2021/11/13 04:48:23;;;;;;;3.40;1.75;;;;;;;;;;7392756;19;20006;-59
2021/11/13 04:50:50;;;;;;;5.10;2.20;;;;;;;;;;7392586;19;20482;-59
2021/11/13 04:53:17;;;;;;;3.22;1.70;;;;;;;;;;7395927;19;20066;-59
2021/11/13 04:55:45;;;;;;;4.15;1.83;;;;;;;;;;7392365;19;20013;-59
2021/11/13 04:58:13;;;;;;;4.55;2.05;;;;;;;;;;7394752;19;20010;-59
2021/11/13 05:00:41;;;;;;;7.18;2.38;;;;;;;;;;7392182;19;20011;-58
2021/11/13 05:03:08;;;;;;;6.53;2.35;;;;;;;;;;7392188;19;20069;-58
2021/11/13 05:05:36;;;;;;;4.80;2.03;;;;;;;;;;7390479;19;20140;-58
2021/11/13 05:08:03;;;;;;;4.93;2.40;;;;;;;;;;7392193;19;20015;-58
2021/11/13 05:10:31;;;;;;;5.68;2.20;;;;;;;;;;7392412;19;20050;-59
2021/11/13 05:12:58;;;;;;;4.53;2.33;;;;;;;;;;7392070;19;20081;-58
2021/11/13 05:15:26;;;;;;;4.10;1.98;;;;;;;;;;7388995;19;20015;-60
2021/11/13 05:17:53;;;;;;;3.85;2.00;;;;;;;;;;7391591;19;20027;-58
2021/11/13 05:20:20;;;;;;;3.38;1.90;;;;;;;;;;7391776;19;20014;-58
2021/11/13 05:22:49;;;;;;;4.18;2.17;;;;;;;;;;7391681;19;20047;-57
2021/11/13 05:25:20;;;;;;;3.70;1.92;;;;;;;;;;7390561;19;20021;-59
2021/11/13 05:27:48;;;;;;;3.28;1.50;;;;;;;;;;7391742;19;20006;-58
2021/11/13 05:30:17;;;;;;;3.45;1.67;;;;;;;;;;7391109;19;20014;-57
2021/11/13 05:32:45;;;;;;;3.80;1.80;;;;;;;;;;7391533;19;20014;-57
2021/11/13 05:35:12;;;;;;;3.58;1.77;;;;;;;;;;7390833;19;20018;-59
2021/11/13 05:37:40;;;;;;;3.75;1.88;;;;;;;;;;7390940;19;20007;-58
2021/11/13 05:40:10;;;;;;;4.50;2.17;;;;;;;;;;7390939;19;20021;-58
2021/11/13 05:42:39;;;;;;;5.50;2.75;;;;;;;;;;7390709;19;20397;-58
2021/11/13 05:45:09;;;;;;;3.13;1.83;;;;;;;;;;7390210;19;20010;-59
2021/11/13 05:47:36;;;;;;;3.92;2.00;;;;;;;;;;7390912;19;20022;-59
2021/11/13 05:50:09;;;;;;;5.03;2.15;;;;;;;;;;7390674;19;20026;-57
2021/11/13 05:52:38;;;;;;;4.77;1.90;;;;;;;;;;7392564;19;20009;-58
2021/11/13 05:55:06;;;;;;;4.78;2.10;;;;;;;;;;7388582;19;20018;-58
2021/11/13 05:57:33;;;;;;;3.20;1.90;;;;;;;;;;7389981;19;20013;-59
2021/11/13 06:00:00;;;;;;;5.00;1.77;;;;;;;;;;7390622;19;20010;-58
2021/11/13 06:02:37;;;;;;;3.80;2.05;;;;;;;;;;7388880;19;20018;-54
2021/11/13 06:05:06;;;;;;;7.55;4.47;;;;;;;;;;7389413;19;20479;-58
2021/11/13 06:07:34;;;;;;;8.75;3.90;;;;;;;;;;7389833;19;20014;-59
2021/11/13 06:10:02;;;;;;;7.28;3.53;;;;;;;;;;7389682;19;20017;-58
2021/11/13 06:12:30;;;;;;;6.15;3.03;;;;;;;;;;7390916;19;20028;-59
2021/11/13 06:14:57;;;;;;;5.50;2.60;;;;;;;;;;7390422;19;20018;-59
2021/11/13 06:17:25;;;;;;;6.53;3.20;;;;;;;;;;7390131;19;20034;-59
2021/11/13 06:19:52;;;;;;;6.13;3.35;;;;;;;;;;7390194;19;20050;-59
2021/11/13 06:22:20;;;;;;;7.97;3.75;;;;;;;;;;7389376;19;20018;-59
2021/11/13 06:24:47;;;;;;;8.02;3.85;;;;;;;;;;7389663;19;20016;-58
2021/11/13 06:27:16;;;;;;;5.95;2.75;;;;;;;;;;7390217;19;20030;-59
2021/11/13 06:29:44;;;;;;;4.80;2.55;;;;;;;;;;7390064;19;20010;-59
2021/11/13 06:32:12;;;;;;;3.90;2.00;;;;;;;;;;7389729;19;20010;-58
2021/11/13 06:34:40;;;;;;;5.30;2.70;;;;;;;;;;7392993;19;20013;-59
2021/11/13 06:37:09;;;;;;;6.55;2.60;;;;;;;;;;7389195;19;20944;-57
2021/11/13 06:39:36;;;;;;;8.70;2.63;;;;;;;;;;7389219;19;20355;-58
2021/11/13 06:42:05;;;;;;;5.43;2.50;;;;;;;;;;7389203;19;20051;-59
2021/11/13 06:44:33;;;;;;;6.45;3.22;;;;;;;;;;7388743;19;20494;-56
2021/11/13 06:47:00;;;;;;;7.13;3.53;;;;;;;;;;7388732;19;20017;-59
2021/11/13 06:49:27;;;;;;;6.68;3.30;;;;;;;;;;7388989;19;20094;-59
2021/11/13 06:51:55;;;;;;;4.88;2.40;;;;;;;;;;7389526;19;20010;-59
2021/11/13 06:54:23;;;;;;;43.70;15.30;;;;;;;;;;7387740;19;20011;-58
2021/11/13 06:56:50;;;;;;;28.05;13.50;;;;;;;;;;7388087;19;20504;-59
2021/11/13 06:59:18;;;;;;;9.05;5.03;;;;;;;;;;7389177;19;20010;-57
2021/11/13 07:01:45;;;;;;;7.13;3.13;;;;;;;;;;7388444;19;20018;-58
2021/11/13 07:04:13;;;;;;;4.32;2.40;;;;;;;;;;7389157;19;20038;-59
2021/11/13 07:06:40;;;;;;;4.43;2.10;;;;;;;;;;7387995;19;20483;-57
2021/11/13 07:09:08;;;;;;;5.28;2.55;;;;;;;;;;7388521;19;20026;-59
2021/11/13 07:11:35;;;;;;;6.07;2.15;;;;;;;;;;7390732;19;20014;-59
2021/11/13 07:14:03;;;;;;;4.15;2.40;;;;;;;;;;7393325;19;20030;-57
2021/11/13 07:16:30;;;;;;;2.97;1.75;;;;;;;;;;7394955;19;20022;-57
2021/11/13 07:18:58;;;;;;;3.50;1.85;;;;;;;;;;7396214;19;20011;-59
2021/11/13 07:21:25;;;;;;;3.42;1.90;;;;;;;;;;7395397;19;20027;-59
2021/11/13 07:23:54;;;;;;;3.50;1.75;;;;;;;;;;7395088;19;20007;-58
2021/11/13 07:26:21;;;;;;;3.45;1.90;;;;;;;;;;7393034;19;20484;-58
2021/11/13 07:28:51;;;;;;;3.88;1.88;;;;;;;;;;7395564;19;20085;-58
2021/11/13 07:31:18;;;;;;;3.20;1.60;;;;;;;;;;7394677;19;20011;-58
2021/11/13 07:33:49;;;;;;;3.80;1.70;;;;;;;;;;7395464;19;20487;-56
2021/11/13 07:36:16;;;;;;;4.30;2.50;;;;;;;;;;7395660;19;20099;-59
2021/11/13 07:38:49;;;;;;;4.53;2.40;;;;;;;;;;7395063;19;20036;-57
2021/11/13 07:41:18;;;;;;;3.80;1.75;;;;;;;;;;7397030;19;20042;-58
2021/11/13 07:43:46;;;;;;;3.22;1.65;;;;;;;;;;7398319;19;20022;-55
2021/11/13 07:46:13;;;;;;;4.10;1.80;;;;;;;;;;7392902;19;20015;-55
2021/11/13 07:48:41;;;;;;;3.72;1.95;;;;;;;;;;7395497;19;20359;-58
2021/11/13 07:51:09;;;;;;;4.20;1.73;;;;;;;;;;7393897;19;20594;-59
2021/11/13 07:53:36;;;;;;;3.60;1.77;;;;;;;;;;7398104;19;20019;-58
2021/11/13 07:56:05;;;;;;;3.05;1.63;;;;;;;;;;7394241;19;20011;-58
2021/11/13 07:58:32;;;;;;;3.53;1.67;;;;;;;;;;7393542;19;20015;-58
2021/11/13 08:00:59;;;;;;;3.20;1.63;;;;;;;;;;7394170;19;20475;-58
2021/11/13 08:03:27;;;;;;;4.97;1.98;;;;;;;;;;7393858;19;20487;-57
2021/11/13 08:05:55;;;;;;;3.90;1.88;;;;;;;;;;7392522;19;20035;-58
2021/11/13 08:08:22;;;;;;;6.30;2.22;;;;;;;;;;7394480;19;20015;-56
2021/11/13 08:10:49;;;;;;;10.15;2.40;;;;;;;;;;7393706;19;20029;-59
2021/11/13 08:13:19;;;;;;;4.75;1.98;;;;;;;;;;7397653;19;20021;-58
2021/11/13 08:15:48;;;;;;;5.20;2.53;;;;;;;;;;7394258;19;20025;-59
2021/11/13 08:18:17;;;;;;;6.20;2.00;;;;;;;;;;7393761;19;20010;-60
2021/11/13 08:20:45;;;;;;;4.20;1.98;;;;;;;;;;7394053;19;20019;-58
2021/11/13 08:23:14;;;;;;;4.22;2.10;;;;;;;;;;7393696;19;20014;-57
2021/11/13 08:25:43;;;;;;;4.53;2.00;;;;;;;;;;7390198;19;20018;-57
2021/11/13 08:28:12;;;;;;;4.05;2.00;;;;;;;;;;7393267;19;20018;-58
2021/11/13 08:30:46;;;;;;;4.47;2.17;;;;;;;;;;7393982;19;20096;-58
2021/11/13 08:33:14;;;;;;;4.00;2.08;;;;;;;;;;7393768;19;20010;-59
2021/11/13 08:35:45;;;;;;;5.40;2.40;;;;;;;;;;7392544;19;20026;-56
2021/11/13 08:38:14;;;;;;;5.95;2.10;;;;;;;;;;7392450;19;20523;-59
2021/11/13 08:40:45;;;;;;;4.78;2.15;;;;;;;;;;7393920;19;20499;-58
2021/11/13 08:43:17;;;;;;;5.35;2.40;;;;;;;;;;7392995;19;20503;-59
2021/11/13 08:45:46;;;;;;;8.15;2.67;;;;;;;;;;7392266;19;20021;-59
2021/11/13 08:48:15;;;;;;;5.30;2.47;;;;;;;;;;7393140;19;20019;-58
2021/11/13 08:50:45;;;;;;;3.78;2.00;;;;;;;;;;7393122;19;20042;-58
2021/11/13 08:53:13;;;;;;;4.35;2.45;;;;;;;;;;7394877;19;20367;-59
2021/11/13 08:55:43;;;;;;;5.25;2.15;;;;;;;;;;7392467;19;20522;-58
2021/11/13 08:58:12;;;;;;;3.15;1.80;;;;;;;;;;7394443;19;20020;-59
2021/11/13 09:00:50;;;;;;;4.53;2.47;;;;;;;;;;7392245;19;20029;-60
2021/11/13 09:03:38;;;;;;;4.88;2.22;;;;;;;;;;7392632;19;20086;-59
2021/11/13 09:06:10;;;;;;;5.88;2.13;;;;;;;;;;7390746;19;20020;-59
2021/11/13 09:08:39;;;;;;;8.77;2.92;;;;;;;;;;7392548;19;20010;-59
2021/11/13 09:11:09;;;;;;;4.28;2.35;;;;;;;;;;7392411;19;20022;-57
2021/11/13 09:13:36;;;;;;;7.40;3.33;;;;;;;;;;7391518;19;20040;-59
2021/11/13 09:16:06;;;;;;;5.63;2.97;;;;;;;;;;7391629;19;20034;-60
2021/11/13 09:18:34;;;;;;;5.97;3.00;;;;;;;;;;7391993;19;20105;-58
2021/11/13 09:21:03;;;;;;;4.95;2.60;;;;;;;;;;7390000;19;20572;-59
2021/11/13 09:23:34;;;;;;;7.75;3.45;;;;;;;;;;7391673;19;20006;-58
2021/11/13 09:26:02;;;;;;;6.95;3.42;;;;;;;;;;7390379;19;20014;-59
2021/11/13 09:28:30;;;;;;;10.02;3.80;;;;;;;;;;7391819;19;20033;-58
2021/11/13 09:30:59;;;;;;;6.43;3.45;;;;;;;;;;7391307;19;20312;-59
2021/11/13 09:33:28;;;;;;;7.72;2.88;;;;;;;;;;7390988;19;20014;-59
2021/11/13 09:35:56;;;;;;;7.93;3.20;;;;;;;;;;7390545;19;20022;-58
2021/11/13 09:38:26;;;;;;;6.00;3.08;;;;;;;;;;7388974;19;20039;-58
2021/11/13 09:40:58;;;;;;;4.70;2.60;;;;;;;;;;7390910;19;20010;-59
2021/11/13 09:43:27;;;;;;;4.78;2.63;;;;;;;;;;7391408;19;20078;-58
2021/11/13 09:45:57;;;;;;;9.38;5.75;;;;;;;;;;7389946;19;20485;-58
2021/11/13 09:48:25;;;;;;;7.35;4.22;;;;;;;;;;7390398;19;20479;-58
2021/11/13 09:50:53;;;;;;;5.63;3.72;;;;;;;;;;7390642;19;20014;-59
2021/11/13 09:53:24;;;;;;;5.10;2.60;;;;;;;;;;7394020;19;20006;-59
2021/11/13 09:55:53;;;;;;;4.80;2.28;;;;;;;;;;7390504;19;20018;-59
2021/11/13 09:58:22;;;;;;;2.90;1.52;;;;;;;;;;7390228;19;20074;-59
2021/11/13 10:00:51;;;;;;;2.97;1.52;;;;;;;;;;7389669;19;20007;-59
2021/11/13 10:03:20;;;;;;;4.18;2.28;;;;;;;;;;7390636;19;20097;-59
2021/11/13 10:05:53;;;;;;;3.00;1.75;;;;;;;;;;7387673;19;20037;-58
2021/11/13 10:08:21;;;;;;;2.28;1.33;;;;;;;;;;7390026;19;20377;-59
2021/11/13 10:11:04;;;;;;;3.30;1.90;;;;;;;;;;7390437;19;20036;-59
2021/11/13 10:13:39;;;;;;;3.00;1.60;;;;;;;;;;7389466;19;20356;-59
2021/11/13 10:16:21;;;;;;;1.80;1.20;;;;;;;;;;7390142;19;20014;-59
2021/11/13 10:18:52;;;;;;;2.28;1.13;;;;;;;;;;7390106;19;20035;-58
2021/11/13 10:21:25;;;;;;;2.05;1.38;;;;;;;;;;7390026;19;20035;-59
2021/11/13 10:23:59;;;;;;;1.85;1.13;;;;;;;;;;7389178;19;20015;-59
2021/11/13 10:26:31;;;;;;;3.10;1.23;;;;;;;;;;7387790;19;20474;-59
2021/11/13 10:29:12;;;;;;;79.72;28.88;;;;;;;;;;7389800;19;20015;-62
2021/11/13 10:31:43;;;;;;;56.58;21.35;;;;;;;;;;7389593;19;20025;-59
2021/11/13 10:34:13;;;;;;;9.43;4.90;;;;;;;;;;7389524;19;20018;-60
2021/11/13 10:36:44;;;;;;;4.75;2.15;;;;;;;;;;7389323;19;20014;-59
2021/11/13 10:39:23;;;;;;;3.28;1.70;;;;;;;;;;7389160;19;20017;-59
2021/11/13 10:41:53;;;;;;;2.80;1.55;;;;;;;;;;7387901;19;20035;-57
2021/11/13 10:44:45;;;;;;;2.72;1.40;;;;;;;;;;7389869;19;20017;-58
2021/11/13 10:47:16;;;;;;;2.42;1.48;;;;;;;;;;7387105;19;20074;-59
2021/11/13 10:49:47;;;;;;;2.63;1.48;;;;;;;;;;7395304;19;20011;-59
2021/11/13 10:52:15;;;;;;;2.58;1.30;;;;;;;;;;7398049;19;20074;-59
2021/11/13 10:54:47;;;;;;;2.80;1.45;;;;;;;;;;7394439;19;20039;-58
2021/11/13 10:57:25;;;;;;;2.40;1.33;;;;;;;;;;7396286;19;20518;-59
2021/11/13 10:59:53;;;;;;;3.03;1.40;;;;;;;;;;7396107;19;20077;-60
2021/11/13 11:02:22;;;;;;;2.38;1.40;;;;;;;;;;7396898;19;20011;-60
2021/11/13 11:04:50;;;;;;;14.07;4.93;;;;;;;;;;7396377;19;20022;-60
2021/11/13 11:07:21;;;;;;;9.27;3.80;;;;;;;;;;7393849;19;20025;-59
2021/11/13 11:10:09;;;;;;;3.58;1.95;;;;;;;;;;7396435;19;20482;-59
2021/11/13 11:12:45;;;;;;;2.70;1.40;;;;;;;;;;7395870;19;20082;-58
2021/11/13 11:15:14;;;;;;;2.70;1.70;;;;;;;;;;7399835;19;20508;-59
2021/11/13 11:17:42;;;;;;;2.50;1.48;;;;;;;;;;7395750;19;20022;-59
2021/11/13 11:20:14;;;;;;;2.70;1.60;;;;;;;;;;7394907;19;20022;-60
2021/11/13 11:22:42;;;;;;;1.60;1.00;;;;;;;;;;7396322;19;20025;-59
2021/11/13 11:25:13;;;;;;;1.98;1.20;;;;;;;;;;7395853;19;20014;-59
2021/11/13 11:27:42;;;;;;;2.13;1.20;;;;;;;;;;7394721;19;20514;-60
2021/11/13 11:30:15;;;;;;;1.65;1.00;;;;;;;;;;7395511;19;20019;-57
2021/11/13 11:32:42;;;;;;;2.63;1.00;;;;;;;;;;7394857;19;20046;-58
2021/11/13 11:35:15;;;;;;;18.67;5.65;;;;;;;;;;7395294;19;20099;-58
2021/11/13 11:37:46;;;;;;;1.85;0.90;;;;;;;;;;7393220;19;20014;-58
2021/11/13 11:40:23;;;;;;;1.33;0.75;;;;;;;;;;7395038;19;20028;-59
2021/11/13 11:42:52;;;;;;;3.70;0.90;;;;;;;;;;7395883;19;20007;-59
2021/11/13 11:45:22;;;;;;;1.35;0.80;;;;;;;;;;7395357;19;20018;-60
2021/11/13 11:47:51;;;;;;;1.27;0.90;;;;;;;;;;7395064;19;20011;-59
2021/11/13 11:50:26;;;;;;;1.08;0.82;;;;;;;;;;7394788;19;20026;-60
2021/11/13 11:52:58;;;;;;;2.20;0.80;;;;;;;;;;7397450;19;20487;-59
2021/11/13 11:55:27;;;;;;;1.73;1.02;;;;;;;;;;7394597;19;20019;-59
2021/11/13 11:57:56;;;;;;;1.88;1.13;;;;;;;;;;7394507;19;20021;-59
2021/11/13 12:00:26;;;;;;;1.40;0.90;;;;;;;;;;7393008;19;20040;-60
2021/11/13 12:02:57;;;;;;;1.45;0.70;;;;;;;;;;7394480;19;20057;-59
2021/11/13 12:05:29;;;;;;;401.05;141.75;;;;;;;;;;7393737;19;20140;-55
2021/11/13 12:07:58;;;;;;;34.47;13.48;;;;;;;;;;7394218;19;20015;-60
2021/11/13 12:10:29;;;;;;;4.88;2.60;;;;;;;;;;7393901;19;20007;-59
2021/11/13 12:13:15;;;;;;;3.88;1.05;;;;;;;;;;7395709;19;20073;-59
2021/11/13 12:16:11;;;;;;;2.03;0.90;;;;;;;;;;7391696;19;20487;-60
2021/11/13 12:18:45;;;;;;;1.02;0.70;;;;;;;;;;7393198;19;20018;-59
2021/11/13 12:21:15;;;;;;;1.10;0.70;;;;;;;;;;7392984;19;20107;-58
2021/11/13 12:23:46;;;;;;;2.33;1.00;;;;;;;;;;7393090;19;20007;-59
2021/11/13 12:26:44;;;;;;;1.25;0.95;;;;;;;;;;7392970;19;20035;-60
2021/11/13 12:29:13;;;;;;;1.65;0.73;;;;;;;;;;7393067;19;20010;-60
2021/11/13 12:31:45;;;;;;;1.23;0.70;;;;;;;;;;7393207;19;20006;-59
2021/11/13 12:34:16;;;;;;;1.02;0.63;;;;;;;;;;7393189;19;20102;-59
2021/11/13 12:37:00;;;;;;;10.93;4.43;;;;;;;;;;7393620;19;20036;-59
2021/11/13 12:39:36;;;;;;;3.88;1.60;;;;;;;;;;7392301;19;20046;-60
2021/11/13 12:42:09;;;;;;;1.90;1.00;;;;;;;;;;7392733;19;20036;-61
2021/11/13 12:44:44;;;;;;;2.17;1.00;;;;;;;;;;7392699;19;20490;-60
2021/11/13 12:47:29;;;;;;;0.75;0.68;;;;;;;;;;7391500;19;20031;-59
2021/11/13 12:50:08;;;;;;;1.60;0.82;;;;;;;;;;7392893;19;20032;-57
2021/11/13 12:52:47;;;;;;;2.85;1.20;;;;;;;;;;7394436;19;20014;-59
2021/11/13 12:55:33;;;;;;;1.88;1.10;;;;;;;;;;7390704;19;20010;-60
2021/11/13 12:58:03;;;;;;;1.50;1.10;;;;;;;;;;7394051;19;20556;-59
2021/11/13 13:00:40;;;;;;;0.95;0.75;;;;;;;;;;7390408;19;20077;-59
2021/11/13 13:03:18;;;;;;;1.38;0.93;;;;;;;;;;7392227;19;20466;-60
2021/11/13 13:05:46;;;;;;;3.03;1.40;;;;;;;;;;7392337;19;20011;-60
2021/11/13 13:08:20;;;;;;;2.55;1.40;;;;;;;;;;7395998;19;20006;-59
2021/11/13 13:10:49;;;;;;;2.13;1.10;;;;;;;;;;7391789;19;20010;-60
2021/11/13 13:13:19;;;;;;;2.88;1.45;;;;;;;;;;7388750;19;20010;-60
2021/11/13 13:15:54;;;;;;;2.70;1.40;;;;;;;;;;7391922;19;20014;-59
2021/11/13 13:18:22;;;;;;;3.17;1.67;;;;;;;;;;7392111;19;20019;-60
2021/11/13 13:20:49;;;;;;;2.65;1.67;;;;;;;;;;7391203;19;20716;-60
2021/11/13 13:23:23;;;;;;;3.17;1.92;;;;;;;;;;7392237;19;20010;-60
2021/11/13 13:26:05;;;;;;;25.27;9.27;;;;;;;;;;7391362;19;20035;-59
2021/11/13 13:28:35;;;;;;;18.23;8.90;;;;;;;;;;7390976;19;20014;-60
2021/11/13 13:31:09;;;;;;;7.82;3.58;;;;;;;;;;7391511;19;20014;-60
2021/11/13 13:33:39;;;;;;;3.30;1.73;;;;;;;;;;7391012;19;20014;-60
2021/11/13 13:36:07;;;;;;;2.90;1.73;;;;;;;;;;7391368;19;20037;-60
2021/11/13 13:38:34;;;;;;;2.38;1.25;;;;;;;;;;7390719;19;20022;-60
2021/11/13 13:41:05;;;;;;;2.47;1.35;;;;;;;;;;7390969;19;20016;-60
2021/11/13 13:43:40;;;;;;;1.50;1.10;;;;;;;;;;7390628;19;20010;-60
2021/11/13 13:46:20;;;;;;;2.20;1.55;;;;;;;;;;7390174;19;20018;-60
2021/11/13 13:48:56;;;;;;;2.97;1.77;;;;;;;;;;7390495;19;20014;-61
2021/11/13 13:51:27;;;;;;;3.20;1.80;;;;;;;;;;7390472;19;20011;-60
2021/11/13 13:54:14;;;;;;;2.97;1.55;;;;;;;;;;7394850;19;20022;-60
2021/11/13 13:56:46;;;;;;;3.92;1.20;;;;;;;;;;7390918;19;20014;-60
2021/11/13 13:59:24;;;;;;;1.70;1.10;;;;;;;;;;7390873;19;20070;-60
2021/11/13 14:01:55;;;;;;;2.45;1.38;;;;;;;;;;7390254;19;20021;-60
2021/11/13 14:04:27;;;;;;;2.60;1.58;;;;;;;;;;7389794;19;20017;-59
2021/11/13 14:07:07;;;;;;;2.47;1.30;;;;;;;;;;7389014;19;20027;-60
2021/11/13 14:09:35;;;;;;;2.95;1.60;;;;;;;;;;7390155;19;20014;-60
2021/11/13 14:12:04;;;;;;;1.98;1.25;;;;;;;;;;7389895;19;20025;-60
2021/11/13 14:14:32;;;;;;;1.90;1.17;;;;;;;;;;7391756;19;20010;-60
2021/11/13 14:16:59;;;;;;;2.10;1.10;;;;;;;;;;7390429;19;20074;-60
2021/11/13 14:19:27;;;;;;;1.90;1.13;;;;;;;;;;7390133;19;20534;-60
2021/11/13 14:22:05;;;;;;;14.57;6.65;;;;;;;;;;7390233;19;20022;-61
2021/11/13 14:24:33;;;;;;;6.30;2.97;;;;;;;;;;7394576;19;20038;-60
2021/11/13 14:27:09;;;;;;;3.78;2.10;;;;;;;;;;7396598;19;20017;-60
2021/11/13 14:29:38;;;;;;;2.88;1.52;;;;;;;;;;7396934;19;20035;-59
2021/11/13 14:32:13;;;;;;;2.38;1.50;;;;;;;;;;7397880;19;20038;-60
2021/11/13 14:34:41;;;;;;;2.65;1.67;;;;;;;;;;7396942;19;20482;-60
2021/11/13 14:37:14;;;;;;;3.50;1.98;;;;;;;;;;7397560;19;20021;-60
2021/11/13 14:39:44;;;;;;;4.88;2.90;;;;;;;;;;7395300;19;20113;-59
2021/11/13 14:42:15;;;;;;;4.05;2.70;;;;;;;;;;7396798;19;20022;-60
2021/11/13 14:44:53;;;;;;;3.33;2.13;;;;;;;;;;7397010;19;20019;-60
2021/11/13 14:47:24;;;;;;;2.08;1.58;;;;;;;;;;7395095;19;20094;-60
2021/11/13 14:50:00;;;;;;;2.90;2.20;;;;;;;;;;7397200;19;20018;-60
2021/11/13 14:52:45;;;;;;;2.47;1.70;;;;;;;;;;7398840;19;20010;-61
2021/11/13 14:55:27;;;;;;;2.80;1.75;;;;;;;;;;7394216;19;20037;-60
2021/11/13 14:57:58;;;;;;;1.92;1.40;;;;;;;;;;7395937;19;20034;-60
2021/11/13 15:00:43;;;;;;;2.20;1.60;;;;;;;;;;7396716;19;20126;-59